Time;durP1;ratioP1;P1;durP2;ratioP2;P2;SDS_P1;SDS_P2;PMS_P1;PMS_P2;Temp;Humidity;BMP_temperature;BMP_pressure;BME280_temperature;BME280_humidity;BME280_pressure;Samples;Min_cycle;Max_cycle;Signal;HPM_P1;HPM_P2
2022/05/13 00:01:31;;;;;;;;;;;;;;;22.48;44.60;101165.88;5113442;27;4510;-60
2022/05/13 00:03:58;;;;;;;;;;;;;;;22.48;44.35;101170.91;5115226;27;4135;-59
2022/05/13 00:06:24;;;;;;;;;;;;;;;22.48;44.57;101170.91;5115489;27;4196;-59
2022/05/13 00:08:51;;;;;;;;;;;;;;;22.48;44.58;101163.00;5117034;27;5247;-59
2022/05/13 00:11:17;;;;;;;;;;;;;;;22.48;44.37;101171.66;5112564;27;4233;-60
2022/05/13 00:13:43;;;;;;;;;;;;;;;22.47;44.41;101175.94;5111427;27;5736;-59
2022/05/13 00:16:10;;;;;;;;;;;;;;;22.48;44.70;101171.66;5116654;27;4210;-65
2022/05/13 00:18:36;;;;;;;;;;;;;;;22.47;44.61;101170.19;5109669;27;4138;-60
2022/05/13 00:21:03;;;;;;;;;;;;;;;22.46;44.46;101160.03;5108787;27;4246;-59
2022/05/13 00:23:29;;;;;;;;;;;;;;;22.46;44.43;101168.69;5113293;27;5616;-59
2022/05/13 00:25:55;;;;;;;;;;;;;;;22.45;44.67;101155.66;5117244;27;4556;-59
2022/05/13 00:28:22;;;;;;;;;;;;;;;22.45;44.42;101167.19;5115476;27;4324;-59
2022/05/13 00:30:48;;;;;;;;;;;;;;;22.46;44.46;101167.94;5112826;27;4122;-59
2022/05/13 00:33:18;;;;;;;;;;;;;;;22.46;44.41;101168.69;5114274;27;4582;-60
2022/05/13 00:35:45;;;;;;;;;;;;;;;22.45;44.59;101166.44;5113230;27;6287;-59
2022/05/13 00:38:11;;;;;;;;;;;;;;;22.44;44.50;101171.47;5110980;27;4268;-60
2022/05/13 00:40:37;;;;;;;;;;;;;;;22.45;44.38;101178.75;5102133;27;5174;-59
2022/05/13 00:43:04;;;;;;;;;;;;;;;22.43;44.66;101172.88;5108564;27;4212;-59
2022/05/13 00:45:34;;;;;;;;;;;;;;;22.43;44.68;101180.81;5105125;27;4164;-59
2022/05/13 00:48:00;;;;;;;;;;;;;;;22.42;44.77;101180.03;5105185;27;4131;-59
2022/05/13 00:50:27;;;;;;;;;;;;;;;22.42;44.63;101174.28;5108907;27;4178;-60
2022/05/13 00:52:54;;;;;;;;;;;;;;;22.41;44.60;101169.91;5102313;27;5844;-59
2022/05/13 00:55:33;;;;;;;;;;;;;;;22.41;44.49;101160.50;5102973;27;4219;-59
2022/05/13 00:58:00;;;;;;;;;;;;;;;22.41;44.31;101161.25;5099789;27;4224;-59
2022/05/13 01:00:26;;;;;;;;;;;;;;;22.40;44.44;101159.75;5096659;27;4341;-59
2022/05/13 01:02:52;;;;;;;;;;;;;;;22.40;44.45;101165.53;5104386;27;4207;-59
2022/05/13 01:05:19;;;;;;;;;;;;;;;22.38;44.57;101163.31;5109949;27;4220;-59
2022/05/13 01:07:45;;;;;;;;;;;;;;;22.39;44.47;101166.94;5086821;27;4056;-58
2022/05/13 01:10:13;;;;;;;;;;;;;;;22.37;44.48;101161.06;5100665;27;4175;-59
2022/05/13 01:12:41;;;;;;;;;;;;;;;22.37;44.65;101166.84;5089273;27;4052;-59
2022/05/13 01:15:09;;;;;;;;;;;;;;;22.37;44.68;101155.31;5087025;27;4126;-59
2022/05/13 01:20:22;;;;;;;;;;;;;;;22.36;44.45;101162.47;5104550;27;4210;-59
2022/05/13 01:22:49;;;;;;;;;;;;;;;22.36;44.45;101165.38;5116531;27;4099;-59
2022/05/13 01:25:17;;;;;;;;;;;;;;;22.34;44.43;101168.16;5112567;27;6145;-60
2022/05/13 01:27:44;;;;;;;;;;;;;;;22.34;44.54;101168.16;5114714;27;5261;-59
2022/05/13 01:30:11;;;;;;;;;;;;;;;22.34;44.60;101162.41;5113099;27;4544;-60
2022/05/13 01:32:38;;;;;;;;;;;;;;;22.34;44.51;101162.41;5108268;27;4025;-59
2022/05/13 01:35:05;;;;;;;;;;;;;;;22.32;44.37;101165.19;5115672;27;4358;-59
2022/05/13 01:37:32;;;;;;;;;;;;;;;22.33;44.67;101166.66;5117991;27;4607;-59
2022/05/13 01:40:01;;;;;;;;;;;;;;;22.32;44.45;101168.06;5120854;27;4197;-59
2022/05/13 01:42:28;;;;;;;;;;;;;;;22.32;44.47;101171.69;5120047;27;4151;-59
2022/05/13 01:44:54;;;;;;;;;;;;;;;22.31;44.62;101169.47;5121164;27;4438;-59
2022/05/13 01:47:21;;;;;;;;;;;;;;;22.31;44.45;101169.47;5119645;27;5267;-59
2022/05/13 01:49:47;;;;;;;;;;;;;;;22.30;44.78;101162.94;5120575;27;4495;-59
2022/05/13 01:52:13;;;;;;;;;;;;;;;22.31;44.47;101163.69;5113605;27;4079;-59
2022/05/13 01:54:40;;;;;;;;;;;;;;;22.30;44.46;101156.44;5112855;27;4169;-59
2022/05/13 01:57:06;;;;;;;;;;;;;;;22.29;44.67;101152.09;5113153;27;5250;-59
2022/05/13 01:59:32;;;;;;;;;;;;;;;22.29;44.72;101137.66;5118127;27;4061;-59
2022/05/13 02:01:59;;;;;;;;;;;;;;;22.28;44.46;101139.78;5111290;27;4218;-59
2022/05/13 02:04:25;;;;;;;;;;;;;;;22.28;44.47;101136.16;5115886;27;4129;-59
2022/05/13 02:06:52;;;;;;;;;;;;;;;22.29;44.44;101143.44;5113067;27;4160;-59
2022/05/13 02:09:18;;;;;;;;;;;;;;;22.27;44.54;101137.56;5113073;27;5304;-59
2022/05/13 02:11:46;;;;;;;;;;;;;;;22.27;44.69;101128.91;5116545;27;4661;-59
2022/05/13 02:14:13;;;;;;;;;;;;;;;22.26;44.48;101130.28;5110574;27;4749;-59
2022/05/13 02:16:39;;;;;;;;;;;;;;;22.26;44.47;101133.19;5116521;27;4240;-59
2022/05/13 02:19:06;;;;;;;;;;;;;;;22.26;44.57;101133.19;5111289;27;4265;-59
2022/05/13 02:21:32;;;;;;;;;;;;;;;22.25;44.64;101143.25;5112048;27;4101;-59
2022/05/13 02:23:58;;;;;;;;;;;;;;;22.25;44.42;101125.94;5107986;27;4354;-59
2022/05/13 02:26:25;;;;;;;;;;;;;;;22.23;44.43;101126.59;5102429;27;4089;-59
2022/05/13 02:28:51;;;;;;;;;;;;;;;22.24;44.40;101136.75;5107172;27;4426;-59
2022/05/13 02:31:17;;;;;;;;;;;;;;;22.24;44.33;101135.97;5101372;27;4232;-59
2022/05/13 02:33:44;;;;;;;;;;;;;;;22.23;44.53;101125.84;5105651;27;4214;-59
2022/05/13 02:36:11;;;;;;;;;;;;;;;22.23;44.50;101122.97;5114591;27;4358;-59
2022/05/13 02:38:37;;;;;;;;;;;;;;;22.24;44.62;101135.97;5118746;27;4133;-59
2022/05/13 02:41:12;;;;;;;;;;;;;;;22.23;44.63;101122.97;5117607;27;4241;-59
2022/05/13 02:43:39;;;;;;;;;;;;;;;22.23;44.41;101135.25;5116546;27;4386;-59
2022/05/13 02:46:06;;;;;;;;;;;;;;;22.25;44.40;101140.38;5111089;27;5306;-59
2022/05/13 02:48:32;;;;;;;;;;;;;;;22.24;44.41;101142.50;5112250;27;5360;-59
2022/05/13 02:50:59;;;;;;;;;;;;;;;22.25;44.48;101137.47;5109144;27;4239;-59
2022/05/13 02:53:25;;;;;;;;;;;;;;;22.25;44.39;101131.72;5104604;27;4077;-59
2022/05/13 02:55:51;;;;;;;;;;;;;;;22.26;44.37;101127.41;5102951;27;4355;-59
2022/05/13 02:58:18;;;;;;;;;;;;;;;22.26;44.61;101127.41;5101167;27;4225;-59
2022/05/13 03:00:44;;;;;;;;;;;;;;;22.24;44.63;101112.91;5101259;27;3950;-60
2022/05/13 03:03:11;;;;;;;;;;;;;;;22.25;44.44;101120.91;5105447;27;4245;-59
2022/05/13 03:05:38;;;;;;;;;;;;;;;22.26;44.38;101124.53;5100505;27;4319;-59
2022/05/13 03:08:06;;;;;;;;;;;;;;;22.26;44.49;101122.38;5101261;27;5241;-59
2022/05/13 03:10:35;;;;;;;;;;;;;;;22.26;44.45;101121.66;5103611;27;4150;-59
2022/05/13 03:13:01;;;;;;;;;;;;;;;22.26;44.53;101124.53;5099815;27;4214;-59
2022/05/13 03:15:28;;;;;;;;;;;;;;;22.26;44.59;101121.66;5101712;27;4191;-59
2022/05/13 03:17:55;;;;;;;;;;;;;;;22.26;44.35;101121.66;5104273;27;4254;-59
2022/05/13 03:20:21;;;;;;;;;;;;;;;22.26;44.63;101122.38;5103105;27;4142;-59
2022/05/13 03:22:51;;;;;;;;;;;;;;;22.26;44.45;101128.16;5100302;27;5434;-59
2022/05/13 03:25:18;;;;;;;;;;;;;;;22.27;44.61;101120.25;5099597;27;5244;-59
2022/05/13 03:27:44;;;;;;;;;;;;;;;22.28;44.40;101115.97;5094927;27;4241;-59
2022/05/13 03:30:12;;;;;;;;;;;;;;;22.27;44.31;101129.66;5096953;27;3992;-60
2022/05/13 03:32:39;;;;;;;;;;;;;;;22.27;44.53;101123.16;5098937;27;5424;-59
2022/05/13 03:35:07;;;;;;;;;;;;;;;22.27;44.50;101118.13;5101484;27;4072;-59
2022/05/13 03:37:34;;;;;;;;;;;;;;;22.28;44.56;101118.84;5098963;27;4182;-59
2022/05/13 03:40:00;;;;;;;;;;;;;;;22.28;44.56;101118.84;5106673;27;4189;-59
2022/05/13 03:42:27;;;;;;;;;;;;;;;22.29;44.44;101120.34;5095652;27;4213;-59
2022/05/13 03:44:53;;;;;;;;;;;;;;;22.28;44.66;101118.84;5099203;27;4563;-59
2022/05/13 03:47:20;;;;;;;;;;;;;;;22.28;44.78;101113.06;5098266;27;5294;-59
2022/05/13 03:49:47;;;;;;;;;;;;;;;22.28;44.55;101108.03;5111739;27;4324;-59
2022/05/13 03:52:13;;;;;;;;;;;;;;;22.29;44.45;101108.81;5110140;27;4311;-59
2022/05/13 03:54:39;;;;;;;;;;;;;;;22.29;44.73;101115.31;5110832;27;4269;-59
2022/05/13 03:57:06;;;;;;;;;;;;;;;22.28;44.47;101108.03;5109429;27;4928;-59
2022/05/13 03:59:33;;;;;;;;;;;;;;;22.29;44.56;101117.47;5109760;27;5365;-59
2022/05/13 04:01:59;;;;;;;;;;;;;;;22.28;44.52;101107.31;5109939;27;4064;-59
2022/05/13 04:04:29;;;;;;;;;;;;;;;22.29;44.52;101114.59;5112114;27;4187;-59
2022/05/13 04:09:41;;;;;;;;;;;;;;;22.28;44.75;101113.81;5097163;27;4151;-59
2022/05/13 04:17:37;;;;;;;;;;;;;;;22.23;43.80;101117.19;5104374;27;4153;-58
2022/05/13 04:20:04;;;;;;;;;;;;;;;22.22;43.54;101104.16;5101197;27;4042;-59
2022/05/13 04:22:31;;;;;;;;;;;;;;;22.22;43.25;101104.16;5116326;27;5341;-59
2022/05/13 04:24:58;;;;;;;;;;;;;;;22.20;43.38;101098.31;5092568;28;3960;-59
2022/05/13 04:27:24;;;;;;;;;;;;;;;22.18;42.85;101108.34;5105775;27;4137;-59
2022/05/13 04:29:52;;;;;;;;;;;;;;;22.18;43.07;101096.06;5115269;27;4143;-59
2022/05/13 04:32:18;;;;;;;;;;;;;;;22.17;42.83;101098.22;5108292;27;5126;-60
2022/05/13 04:34:45;;;;;;;;;;;;;;;22.18;42.64;101093.19;5104680;27;4146;-59
2022/05/13 04:37:11;;;;;;;;;;;;;;;22.20;43.29;101095.41;5110585;27;4227;-61
2022/05/13 04:39:38;;;;;;;;;;;;;;;22.22;42.85;101092.63;5105735;27;4117;-60
2022/05/13 04:44:49;;;;;;;;;;;;;;;22.26;43.49;101092.78;5113348;27;4203;-61
2022/05/13 04:50:05;;;;;;;;;;;;;;;21.90;42.36;101104.22;5105121;27;4225;-61
2022/05/13 04:52:31;;;;;;;;;;;;;;;21.73;42.70;101103.50;5106260;27;4348;-67
2022/05/13 04:54:58;;;;;;;;;;;;;;;21.37;42.46;101098.94;5111799;27;4126;-70
2022/05/13 04:57:24;;;;;;;;;;;;;;;21.22;42.71;101097.53;5082171;28;4140;-59
2022/05/13 04:59:50;;;;;;;;;;;;;;;21.42;42.73;101109.28;5103786;28;4158;-60
2022/05/13 05:02:17;;;;;;;;;;;;;;;21.60;42.48;101107.25;5104839;28;4173;-60
2022/05/13 05:04:43;;;;;;;;;;;;;;;21.72;42.36;101102.03;5109631;28;4166;-60
2022/05/13 05:07:10;;;;;;;;;;;;;;;21.80;42.49;101112.41;5094305;28;4057;-60
2022/05/13 05:09:38;;;;;;;;;;;;;;;21.86;42.72;101110.56;5105175;27;4531;-61
2022/05/13 05:12:05;;;;;;;;;;;;;;;21.90;42.64;101107.84;5115835;27;5196;-60
2022/05/13 05:14:32;;;;;;;;;;;;;;;21.93;43.13;101120.22;5113068;27;4364;-60
2022/05/13 05:16:58;;;;;;;;;;;;;;;21.97;43.03;101114.63;5118307;27;4207;-59
2022/05/13 05:19:24;;;;;;;;;;;;;;;21.98;43.25;101116.09;5119976;27;4168;-59
2022/05/13 05:21:51;;;;;;;;;;;;;;;22.01;43.22;101111.91;5120848;27;5304;-66
2022/05/13 05:24:17;;;;;;;;;;;;;;;22.03;43.35;101112.00;5117815;27;4185;-66
2022/05/13 05:26:43;;;;;;;;;;;;;;;22.03;43.40;101105.50;5120556;27;4199;-66
2022/05/13 05:29:10;;;;;;;;;;;;;;;22.03;43.56;101106.22;5119834;27;4155;-66
2022/05/13 05:31:36;;;;;;;;;;;;;;;22.05;43.80;101109.22;5120323;27;5263;-67
2022/05/13 05:34:03;;;;;;;;;;;;;;;22.06;43.95;101101.28;5119145;27;4354;-67
2022/05/13 05:36:29;;;;;;;;;;;;;;;22.05;43.78;101109.22;5119308;27;4096;-66
2022/05/13 05:38:56;;;;;;;;;;;;;;;22.05;43.92;101100.56;5119886;27;4362;-66
2022/05/13 05:41:22;;;;;;;;;;;;;;;22.06;44.04;101099.16;5119333;27;4229;-66
2022/05/13 05:43:50;;;;;;;;;;;;;;;22.08;44.42;101095.63;5118784;27;4063;-67
2022/05/13 05:46:26;;;;;;;;;;;;;;;22.08;44.20;101090.59;5118806;27;5219;-67
2022/05/13 05:48:52;;;;;;;;;;;;;;;22.08;44.48;101096.38;5119987;27;4064;-73
2022/05/13 05:51:19;;;;;;;;;;;;;;;22.09;44.38;101097.13;5105239;27;4181;-66
2022/05/13 05:59:15;;;;;;;;;;;;;;;22.10;44.42;101093.56;5120317;27;4481;-67
2022/05/13 06:01:41;;;;;;;;;;;;;;;22.11;44.45;101089.28;5104039;27;3937;-67
2022/05/13 06:04:08;;;;;;;;;;;;;;;22.11;44.41;101097.94;5118319;27;5301;-66
2022/05/13 06:06:34;;;;;;;;;;;;;;;22.11;44.50;101089.28;5116781;27;3922;-67
2022/05/13 06:09:01;;;;;;;;;;;;;;;22.12;44.40;101098.69;5119677;27;4107;-66
2022/05/13 06:11:27;;;;;;;;;;;;;;;22.13;44.49;101105.94;5115982;27;4105;-67
2022/05/13 06:13:54;;;;;;;;;;;;;;;22.11;44.44;101100.81;5119414;27;4158;-67
2022/05/13 06:16:22;;;;;;;;;;;;;;;22.13;44.53;101103.06;5099828;27;4107;-67
2022/05/13 06:18:49;;;;;;;;;;;;;;;22.12;44.52;101099.41;5119534;27;4042;-67
2022/05/13 06:21:15;;;;;;;;;;;;;;;22.13;44.56;101108.84;5099555;27;4122;-68
2022/05/13 06:23:41;;;;;;;;;;;;;;;22.12;44.56;101102.31;5117110;27;3974;-67
2022/05/13 06:26:08;;;;;;;;;;;;;;;22.13;44.59;101112.44;5119193;27;4086;-67
2022/05/13 06:28:34;;;;;;;;;;;;;;;22.14;44.81;101111.03;5119117;27;4109;-67
2022/05/13 06:31:01;;;;;;;;;;;;;;;22.13;44.74;101109.56;5119745;27;4164;-67
2022/05/13 06:33:28;;;;;;;;;;;;;;;22.14;44.55;101108.16;5115828;27;3945;-67
2022/05/13 06:35:54;;;;;;;;;;;;;;;22.14;44.75;101113.94;5119156;27;4108;-67
2022/05/13 06:38:21;;;;;;;;;;;;;;;22.15;44.81;101106.00;5116254;27;4091;-67
2022/05/13 06:40:48;;;;;;;;;;;;;;;22.14;44.60;101099.50;5119125;27;4092;-67
2022/05/13 06:43:14;;;;;;;;;;;;;;;22.14;44.65;101099.50;5099938;27;4145;-67
2022/05/13 06:45:41;;;;;;;;;;;;;;;22.15;44.93;101106.78;5119106;27;3913;-67
2022/05/13 06:48:07;;;;;;;;;;;;;;;22.15;44.69;101109.66;5116184;27;3954;-67
2022/05/13 06:50:34;;;;;;;;;;;;;;;22.16;45.04;101114.00;5116171;27;3893;-67
2022/05/13 06:53:00;;;;;;;;;;;;;;;22.15;44.75;101106.78;5107515;27;5287;-67
2022/05/13 06:55:27;;;;;;;;;;;;;;;22.15;44.80;101106.78;5106429;27;4179;-67
2022/05/13 06:57:53;;;;;;;;;;;;;;;22.15;44.89;101095.25;5108915;27;4213;-67
2022/05/13 07:00:20;;;;;;;;;;;;;;;22.16;44.86;101105.38;5106957;27;4547;-67
2022/05/13 07:02:46;;;;;;;;;;;;;;;22.16;45.07;101095.97;5110050;27;4159;-67
2022/05/13 07:05:13;;;;;;;;;;;;;;;22.17;44.67;101097.44;5106158;27;4197;-67
2022/05/13 07:07:40;;;;;;;;;;;;;;;22.17;44.87;101097.44;5109931;27;4053;-67
2022/05/13 07:10:06;;;;;;;;;;;;;;;22.17;45.02;101097.44;5106902;27;4217;-67
2022/05/13 07:12:33;;;;;;;;;;;;;;;22.18;45.01;101098.94;5105262;27;5170;-67
2022/05/13 07:14:59;;;;;;;;;;;;;;;22.18;44.86;101105.44;5108565;27;5301;-67
2022/05/13 07:17:26;;;;;;;;;;;;;;;22.18;44.70;101098.94;5108104;27;4180;-67
2022/05/13 07:19:52;;;;;;;;;;;;;;;22.18;44.87;101105.44;5107007;27;4206;-67
2022/05/13 07:22:18;;;;;;;;;;;;;;;22.18;44.89;101111.22;5105504;27;4605;-67
2022/05/13 07:24:45;;;;;;;;;;;;;;;22.18;45.01;101116.25;5107154;27;4235;-67
2022/05/13 07:27:12;;;;;;;;;;;;;;;22.18;44.86;101122.03;5104049;27;4158;-67
2022/05/13 07:29:38;;;;;;;;;;;;;;;22.19;45.11;101117.72;5108540;27;4194;-67
2022/05/13 07:32:05;;;;;;;;;;;;;;;22.18;44.92;101117.00;5102532;27;3995;-66
2022/05/13 07:34:32;;;;;;;;;;;;;;;22.19;44.91;101111.97;5105451;27;4500;-66
2022/05/13 07:36:59;;;;;;;;;;;;;;;22.20;44.92;101112.72;5108796;27;4178;-66
2022/05/13 07:42:10;;;;;;;;;;;;;;;22.20;45.16;101130.03;5105593;27;5299;-67
2022/05/13 07:44:37;;;;;;;;;;;;;;;22.20;44.92;101130.75;5105235;27;4352;-66
2022/05/13 07:47:04;;;;;;;;;;;;;;;22.20;44.97;101132.91;5106769;27;3985;-66
2022/05/13 07:49:30;;;;;;;;;;;;;;;22.20;44.97;101130.03;5107573;27;4118;-66
2022/05/13 07:51:56;;;;;;;;;;;;;;;22.18;45.04;101142.22;5108318;27;4157;-66
2022/05/13 07:54:23;;;;;;;;;;;;;;;22.17;45.29;101135.72;5102047;27;4224;-66
2022/05/13 07:56:49;;;;;;;;;;;;;;;22.17;45.23;101132.06;5107024;27;4038;-66
2022/05/13 07:59:16;;;;;;;;;;;;;;;22.18;44.98;101139.31;5108098;27;4353;-66
2022/05/13 08:01:42;;;;;;;;;;;;;;;22.20;45.17;101141.56;5116921;28;4204;-66
2022/05/13 08:04:08;;;;;;;;;;;;;;;22.17;45.07;101144.34;5117618;28;4172;-66
2022/05/13 08:06:35;;;;;;;;;;;;;;;22.17;45.20;101147.25;5116323;28;4136;-66
2022/05/13 08:09:01;;;;;;;;;;;;;;;22.17;44.96;101132.81;5117705;28;5129;-66
2022/05/13 08:11:31;;;;;;;;;;;;;;;22.18;44.81;101130.69;5116524;28;4147;-66
2022/05/13 08:14:04;;;;;;;;;;;;;;;22.17;44.94;101127.06;5117957;28;4561;-66
2022/05/13 08:16:33;;;;;;;;;;;;;;;22.17;45.16;101132.06;5115207;28;4177;-66
2022/05/13 08:18:59;;;;;;;;;;;;;;;22.16;44.97;101137.09;5117075;28;4245;-66
2022/05/13 08:21:26;;;;;;;;;;;;;;;22.16;44.98;101137.09;5115264;28;4162;-66
2022/05/13 08:23:52;;;;;;;;;;;;;;;22.16;45.04;101137.09;5117330;28;5352;-66
2022/05/13 08:26:18;;;;;;;;;;;;;;;22.17;45.03;101144.34;5116115;28;4234;-66
2022/05/13 08:28:45;;;;;;;;;;;;;;;22.16;45.11;101137.09;5116625;28;4102;-66
2022/05/13 08:31:13;;;;;;;;;;;;;;;22.16;45.29;101145.75;5115660;28;5387;-67
2022/05/13 08:33:40;;;;;;;;;;;;;;;22.16;45.10;101136.34;5114115;28;4523;-66
2022/05/13 08:36:13;;;;;;;;;;;;;;;22.16;45.13;101139.22;5116317;28;4221;-67
2022/05/13 08:38:39;;;;;;;;;;;;;;;22.16;45.31;101142.13;5117750;28;4416;-67
2022/05/13 08:41:08;;;;;;;;;;;;;;;22.16;45.19;101147.88;5116773;28;4291;-66
2022/05/13 08:43:37;;;;;;;;;;;;;;;22.16;45.29;101145.75;5117795;27;4546;-66
2022/05/13 08:46:06;;;;;;;;;;;;;;;22.16;45.11;101137.09;5115166;27;3931;-66
2022/05/13 08:48:33;;;;;;;;;;;;;;;22.16;45.09;101137.09;5107206;27;5375;-66
2022/05/13 08:51:10;;;;;;;;;;;;;;;22.16;44.97;101142.84;5110215;27;4176;-66
2022/05/13 08:53:38;;;;;;;;;;;;;;;22.16;45.12;101137.09;5095408;27;4157;-67
2022/05/13 08:56:09;;;;;;;;;;;;;;;22.17;45.38;101138.59;5116798;27;4139;-66
2022/05/13 08:58:54;;;;;;;;;;;;;;;22.17;45.15;101138.59;5106664;27;5123;-66
2022/05/13 09:01:23;;;;;;;;;;;;;;;22.18;45.38;101128.53;5120650;27;4217;-66
2022/05/13 09:03:51;;;;;;;;;;;;;;;22.17;45.41;101132.06;5104211;27;4243;-66
2022/05/13 09:06:28;;;;;;;;;;;;;;;22.17;45.23;101138.59;5108272;27;4178;-66
2022/05/13 09:08:55;;;;;;;;;;;;;;;22.17;45.40;101132.81;5109599;27;4846;-66
2022/05/13 09:11:34;;;;;;;;;;;;;;;22.16;45.46;101119.78;5102038;27;5257;-66
2022/05/13 09:14:12;;;;;;;;;;;;;;;22.17;45.31;101132.81;5103480;27;4245;-66
2022/05/13 09:16:41;;;;;;;;;;;;;;;22.17;45.48;101115.53;5119145;27;4183;-66
2022/05/13 09:19:11;;;;;;;;;;;;;;;22.17;45.45;101112.63;5118627;27;4126;-66
2022/05/13 09:21:40;;;;;;;;;;;;;;;22.18;45.41;101108.34;5106919;27;4384;-66
2022/05/13 09:24:06;;;;;;;;;;;;;;;22.17;45.32;101109.75;5107718;27;4231;-66
2022/05/13 09:26:33;;;;;;;;;;;;;;;22.18;45.24;101101.84;5118697;27;5082;-66
2022/05/13 09:29:10;;;;;;;;;;;;;;;22.17;45.44;101109.75;5120624;27;5292;-66
2022/05/13 09:31:38;;;;;;;;;;;;;;;22.17;45.67;101109.75;5118901;27;4511;-66
2022/05/13 09:34:26;;;;;;;;;;;;;;;22.18;45.70;101117.00;5120127;27;4218;-66
2022/05/13 09:37:00;;;;;;;;;;;;;;;22.18;45.54;101111.22;5119501;27;4127;-66
2022/05/13 09:39:27;;;;;;;;;;;;;;;22.18;45.52;101122.03;5105251;27;4316;-66
2022/05/13 09:41:54;;;;;;;;;;;;;;;22.20;45.46;101115.59;5106179;27;4142;-66
2022/05/13 09:44:25;;;;;;;;;;;;;;;22.18;45.68;101117.00;5119332;27;4418;-66
2022/05/13 09:46:52;;;;;;;;;;;;;;;22.17;45.52;101109.75;5119708;27;4068;-66
2022/05/13 09:49:36;;;;;;;;;;;;;;;22.18;45.54;101117.00;5119100;27;4175;-66
2022/05/13 09:52:25;;;;;;;;;;;;;;;22.18;45.75;101111.22;5119839;27;4558;-66
2022/05/13 09:54:51;;;;;;;;;;;;;;;22.20;45.56;101106.94;5118316;27;4482;-66
2022/05/13 09:57:21;;;;;;;;;;;;;;;22.19;45.52;101100.41;5119384;27;4334;-66
2022/05/13 10:00:00;;;;;;;;;;;;;;;22.18;45.90;101098.94;5119760;27;4211;-66
2022/05/13 10:02:38;;;;;;;;;;;;;;;22.20;45.38;101098.31;5119057;27;4199;-66
2022/05/13 10:05:14;;;;;;;;;;;;;;;22.20;45.50;101095.41;5120875;27;4130;-66
2022/05/13 10:07:41;;;;;;;;;;;;;;;22.18;45.72;101099.69;5118606;27;4304;-67
2022/05/13 10:15:39;;;;;;;;;;;;;;;22.18;45.82;101098.94;5107895;27;4365;-67
2022/05/13 10:18:18;;;;;;;;;;;;;;;22.17;45.60;101103.22;5101284;27;4218;-67
2022/05/13 10:20:44;;;;;;;;;;;;;;;22.17;45.80;101100.34;5105349;27;4871;-67
2022/05/13 10:23:18;;;;;;;;;;;;;;;22.18;45.76;101102.56;5118744;27;6364;-68
2022/05/13 10:25:50;;;;;;;;;;;;;;;22.18;45.78;101093.19;5107840;27;4317;-68
2022/05/13 10:28:16;;;;;;;;;;;;;;;22.18;45.51;101093.91;5104489;27;4234;-66
2022/05/13 10:30:50;;;;;;;;;;;;;;;22.17;45.57;101092.44;5107403;27;4113;-66
2022/05/13 10:33:22;;;;;;;;;;;;;;;22.18;45.49;101093.91;5106006;27;4095;-67
2022/05/13 10:35:51;;;;;;;;;;;;;;;22.17;45.71;101092.44;5106612;27;5396;-66
2022/05/13 10:38:21;;;;;;;;;;;;;;;22.17;45.65;101086.69;5106518;27;5296;-66
2022/05/13 10:40:47;;;;;;;;;;;;;;;22.18;45.38;101082.38;5118479;27;4141;-66
2022/05/13 10:43:15;;;;;;;;;;;;;;;22.20;45.67;101075.22;5118527;27;4239;-66
2022/05/13 10:45:42;;;;;;;;;;;;;;;22.18;45.60;101079.50;5100712;27;4248;-66
2022/05/13 10:48:12;;;;;;;;;;;;;;;22.20;45.58;101083.88;5117903;27;4233;-66
2022/05/13 10:50:41;;;;;;;;;;;;;;;22.19;45.68;101091.75;5105855;27;4069;-66
2022/05/13 10:53:24;;;;;;;;;;;;;;;22.20;45.60;101083.88;5106548;27;4250;-66
2022/05/13 10:56:10;;;;;;;;;;;;;;;22.20;45.44;101086.75;5117520;27;5425;-66
2022/05/13 10:58:41;;;;;;;;;;;;;;;22.20;45.64;101090.38;5117914;27;4144;-66
2022/05/13 11:01:14;;;;;;;;;;;;;;;22.20;45.36;101089.66;5119007;27;4195;-67
2022/05/13 11:03:49;;;;;;;;;;;;;;;22.20;45.52;101089.66;5101124;27;4215;-66
2022/05/13 11:06:35;;;;;;;;;;;;;;;22.19;45.65;101086.00;5106470;27;4215;-66
2022/05/13 11:09:07;;;;;;;;;;;;;;;22.18;45.41;101088.16;5106381;27;4457;-66
2022/05/13 11:11:40;;;;;;;;;;;;;;;22.20;45.35;101089.66;5116795;27;5204;-66
2022/05/13 11:14:26;;;;;;;;;;;;;;;22.18;45.45;101099.69;5118529;27;4141;-66
2022/05/13 11:16:58;;;;;;;;;;;;;;;22.20;45.40;101095.41;5117745;27;4031;-66
2022/05/13 11:19:57;;;;;;;;;;;;;;;22.19;45.54;101094.66;5118432;27;3993;-65
2022/05/13 11:22:29;;;;;;;;;;;;;;;22.18;45.47;101096.06;5082575;27;4103;-66
2022/05/13 11:28:00;;;;;;;;;;;;;;;22.19;45.38;101088.88;5106064;27;5407;-66
2022/05/13 11:30:33;;;;;;;;;;;;;;;22.18;45.40;101102.56;5117524;27;4164;-66
2022/05/13 11:33:01;;;;;;;;;;;;;;;22.18;45.29;101099.69;5118260;27;4082;-66
2022/05/13 11:35:44;;;;;;;;;;;;;;;22.20;45.32;101109.84;5104592;27;4039;-66
2022/05/13 11:38:15;;;;;;;;;;;;;;;22.20;45.35;101115.59;5104295;27;4211;-66
2022/05/13 11:40:46;;;;;;;;;;;;;;;22.20;45.17;101112.72;5115764;27;4109;-66
2022/05/13 11:43:35;;;;;;;;;;;;;;;22.21;45.32;101114.19;5116621;27;4097;-66
2022/05/13 11:46:01;;;;;;;;;;;;;;;22.20;45.13;101104.81;5105593;27;4102;-66
2022/05/13 11:48:29;;;;;;;;;;;;;;;22.21;45.33;101109.19;5116827;27;4185;-66
2022/05/13 11:51:11;;;;;;;;;;;;;;;22.20;45.24;101109.84;5104958;27;4025;-66
2022/05/13 11:53:50;;;;;;;;;;;;;;;22.20;45.37;101101.19;5117239;27;4255;-66
2022/05/13 11:56:18;;;;;;;;;;;;;;;22.20;45.05;101101.91;5115613;27;3982;-66
2022/05/13 11:58:52;;;;;;;;;;;;;;;22.21;45.17;101105.53;5117720;27;5312;-66
2022/05/13 12:01:37;;;;;;;;;;;;;;;22.21;45.16;101108.44;5117263;27;4224;-66
2022/05/13 12:04:12;;;;;;;;;;;;;;;22.21;45.30;101114.97;5117677;27;5224;-65
2022/05/13 12:06:51;;;;;;;;;;;;;;;22.21;45.33;101105.53;5117774;28;4139;-66
2022/05/13 12:09:21;;;;;;;;;;;;;;;22.21;45.18;101114.97;5116828;28;4171;-66
2022/05/13 12:11:57;;;;;;;;;;;;;;;22.25;45.17;101114.41;5116857;28;3994;-66
2022/05/13 12:14:24;;;;;;;;;;;;;;;22.24;45.06;101115.78;5104093;28;5458;-66
2022/05/13 12:17:02;;;;;;;;;;;;;;;22.22;45.29;101116.47;5117389;28;4252;-66
2022/05/13 12:19:31;;;;;;;;;;;;;;;22.23;45.33;101123.69;5109340;27;4314;-66
2022/05/13 12:22:11;;;;;;;;;;;;;;;22.24;45.16;101121.56;5107224;27;5287;-66
2022/05/13 12:24:54;;;;;;;;;;;;;;;22.23;45.38;101122.97;5121525;27;4170;-67
2022/05/13 12:30:31;;;;;;;;;;;;;;;22.23;45.14;101138.13;5111233;27;4164;-66
2022/05/13 12:33:19;;;;;;;;;;;;;;;22.24;45.15;101138.88;5122841;27;5262;-66
2022/05/13 12:39:06;;;;;;;;;;;;;;;22.21;44.25;101148.81;5121200;27;4031;-67
2022/05/13 12:41:43;;;;;;;;;;;;;;;22.18;43.77;101145.84;5118627;27;4285;-67
2022/05/13 12:44:28;;;;;;;;;;;;;;;22.18;43.08;101147.97;5118041;27;4116;-67
2022/05/13 12:47:12;;;;;;;;;;;;;;;22.17;42.64;101155.13;5120422;27;4630;-67
2022/05/13 12:49:48;;;;;;;;;;;;;;;22.15;42.72;101152.91;5120919;27;4116;-67
2022/05/13 12:52:21;;;;;;;;;;;;;;;22.15;42.02;101164.47;5116706;27;4025;-68
2022/05/13 12:54:52;;;;;;;;;;;;;;;22.15;42.20;101161.56;5109704;27;5355;-67
2022/05/13 12:57:23;;;;;;;;;;;;;;;22.15;42.02;101161.56;5112211;27;4482;-66
2022/05/13 13:00:08;;;;;;;;;;;;;;;22.15;42.10;101167.34;5121757;27;4097;-69
2022/05/13 13:02:34;;;;;;;;;;;;;;;22.14;42.52;101165.84;5120259;27;4156;-67
2022/05/13 13:05:05;;;;;;;;;;;;;;;22.14;42.06;101162.97;5122125;27;4189;-68
2022/05/13 13:07:32;;;;;;;;;;;;;;;22.14;41.54;101171.59;5120621;27;5288;-70
2022/05/13 13:09:59;;;;;;;;;;;;;;;22.13;41.54;101167.25;5121507;27;4286;-64
2022/05/13 13:12:26;;;;;;;;;;;;;;;22.20;41.47;101164.63;5114850;27;4182;-60
2022/05/13 13:15:13;;;;;;;;;;;;;;;22.14;42.27;101174.50;5120354;27;5364;-65
2022/05/13 13:17:44;;;;;;;;;;;;;;;22.20;41.80;101158.88;5121958;27;4215;-69
2022/05/13 13:20:11;;;;;;;;;;;;;;;22.15;42.64;101170.22;5121111;27;4253;-67
2022/05/13 13:22:38;;;;;;;;;;;;;;;22.10;41.04;101162.78;5121122;27;4101;-67
2022/05/13 13:25:13;;;;;;;;;;;;;;;21.97;39.68;101160.78;5120279;27;4257;-63
2022/05/13 13:27:46;;;;;;;;;;;;;;;22.00;39.78;101158.72;5107093;27;4181;-64
2022/05/13 13:30:14;;;;;;;;;;;;;;;22.03;40.34;101169.66;5121355;27;4174;-64
2022/05/13 13:32:43;;;;;;;;;;;;;;;22.06;40.63;101156.84;5102871;27;4244;-63
2022/05/13 13:35:10;;;;;;;;;;;;;;;22.08;40.94;101156.19;5102566;27;4053;-64
2022/05/13 13:37:38;;;;;;;;;;;;;;;22.09;41.36;101154.78;5117639;27;4325;-63